Time;durP1;ratioP1;P1;durP2;ratioP2;P2;SDS_P1;SDS_P2;PMS_P1;PMS_P2;Temp;Humidity;BMP_temperature;BMP_pressure;BME280_temperature;BME280_humidity;BME280_pressure;Samples;Min_cycle;Max_cycle;Signal;HPM_P1;HPM_P2
2023/10/16 00:00:29;;;;;;;5.50;2.90;;;;;;;;;;689248;28;968;-63
2023/10/16 00:00:49;;;;;;;5.05;2.70;;;;;;;;;;686138;28;69622;-62
2023/10/16 00:01:10;;;;;;;5.43;3.00;;;;;;;;;;689022;28;925;-64
2023/10/16 00:01:31;;;;;;;5.75;3.20;;;;;;;;;;688614;28;848;-63
2023/10/16 00:01:52;;;;;;;6.60;3.20;;;;;;;;;;687311;28;2371;-64
2023/10/16 00:02:13;;;;;;;5.73;3.07;;;;;;;;;;693311;28;893;-63
2023/10/16 00:02:33;;;;;;;5.45;3.03;;;;;;;;;;694834;28;1039;-64
2023/10/16 00:02:56;;;;;;;6.23;3.10;;;;;;;;;;692651;28;1842;-64
2023/10/16 00:03:17;;;;;;;6.07;3.00;;;;;;;;;;693228;28;1014;-63
2023/10/16 00:03:41;;;;;;;6.13;3.33;;;;;;;;;;695401;28;1397;-63
2023/10/16 00:04:01;;;;;;;5.68;3.35;;;;;;;;;;691665;28;22997;-63
2023/10/16 00:04:22;;;;;;;5.97;3.50;;;;;;;;;;694422;28;1296;-63
2023/10/16 00:04:45;;;;;;;5.27;3.20;;;;;;;;;;687943;28;2319;-64
2023/10/16 00:05:08;;;;;;;4.82;3.10;;;;;;;;;;690676;28;24072;-63
2023/10/16 00:05:33;;;;;;;5.45;3.00;;;;;;;;;;691437;28;1450;-63
2023/10/16 00:05:53;;;;;;;5.35;2.90;;;;;;;;;;688435;28;23317;-63
2023/10/16 00:06:14;;;;;;;5.50;3.10;;;;;;;;;;689934;28;835;-62
2023/10/16 00:06:34;;;;;;;5.78;3.10;;;;;;;;;;689488;28;908;-63
2023/10/16 00:06:55;;;;;;;4.82;2.90;;;;;;;;;;688662;28;4636;-63
2023/10/16 00:07:20;;;;;;;4.70;2.80;;;;;;;;;;690900;28;947;-63
2023/10/16 00:07:43;;;;;;;5.40;2.88;;;;;;;;;;690116;28;47050;-63
2023/10/16 00:08:06;;;;;;;6.07;2.97;;;;;;;;;;690719;28;948;-63
2023/10/16 00:08:27;;;;;;;4.43;2.97;;;;;;;;;;689645;28;24133;-63
2023/10/16 00:08:47;;;;;;;4.82;3.10;;;;;;;;;;692016;28;2384;-62
2023/10/16 00:09:28;;;;;;;5.63;3.30;;;;;;;;;;693781;28;974;-62
2023/10/16 00:09:53;;;;;;;5.25;3.25;;;;;;;;;;688960;28;69440;-63
2023/10/16 00:10:14;;;;;;;4.93;3.20;;;;;;;;;;689050;28;68897;-63
2023/10/16 00:10:35;;;;;;;4.97;2.90;;;;;;;;;;692431;28;1434;-63
2023/10/16 00:11:03;;;;;;;5.40;3.00;;;;;;;;;;690520;28;1839;-62
2023/10/16 00:11:23;;;;;;;4.80;2.90;;;;;;;;;;691981;28;70120;-62
2023/10/16 00:11:44;;;;;;;5.68;3.45;;;;;;;;;;692064;28;1505;-63
2023/10/16 00:12:04;;;;;;;5.53;3.80;;;;;;;;;;694879;28;1290;-63
2023/10/16 00:12:29;;;;;;;5.53;3.60;;;;;;;;;;692122;28;935;-63
2023/10/16 00:12:49;;;;;;;5.78;3.45;;;;;;;;;;686185;28;47128;-64
2023/10/16 00:13:12;;;;;;;5.78;3.28;;;;;;;;;;691083;28;883;-62
2023/10/16 00:13:37;;;;;;;5.60;2.92;;;;;;;;;;691263;28;1084;-63
2023/10/16 00:13:57;;;;;;;5.53;3.42;;;;;;;;;;687098;28;46927;-64
2023/10/16 00:14:23;;;;;;;5.97;3.60;;;;;;;;;;689973;28;1233;-63
2023/10/16 00:14:44;;;;;;;6.38;3.60;;;;;;;;;;683992;28;70397;-62
2023/10/16 00:15:04;;;;;;;5.50;3.20;;;;;;;;;;689023;28;948;-63
2023/10/16 00:15:26;;;;;;;5.63;3.20;;;;;;;;;;688122;28;1245;-63
2023/10/16 00:15:49;;;;;;;5.70;3.55;;;;;;;;;;687122;28;4476;-63
2023/10/16 00:16:15;;;;;;;5.78;3.20;;;;;;;;;;690458;28;1394;-62
2023/10/16 00:16:35;;;;;;;6.40;3.50;;;;;;;;;;688206;28;71401;-63
2023/10/16 00:16:56;;;;;;;6.40;3.25;;;;;;;;;;693354;28;2388;-63
2023/10/16 00:17:16;;;;;;;6.67;3.10;;;;;;;;;;693355;28;991;-63
2023/10/16 00:17:37;;;;;;;5.50;3.57;;;;;;;;;;693823;28;878;-62
2023/10/16 00:17:57;;;;;;;5.57;3.30;;;;;;;;;;690392;28;1971;-63
2023/10/16 00:18:18;;;;;;;5.50;3.30;;;;;;;;;;693880;28;838;-62
2023/10/16 00:18:40;;;;;;;5.05;3.30;;;;;;;;;;693499;28;909;-64
2023/10/16 00:19:01;;;;;;;6.35;3.38;;;;;;;;;;690836;28;4353;-63
2023/10/16 00:19:24;;;;;;;6.60;3.40;;;;;;;;;;693808;28;1316;-63
2023/10/16 00:19:44;;;;;;;5.78;3.47;;;;;;;;;;691710;28;2423;-63
2023/10/16 00:20:13;;;;;;;6.32;3.63;;;;;;;;;;692632;28;884;-63
2023/10/16 00:20:33;;;;;;;6.65;3.70;;;;;;;;;;691120;28;47711;-64
2023/10/16 00:20:56;;;;;;;6.70;3.53;;;;;;;;;;692140;28;1009;-63
2023/10/16 00:21:17;;;;;;;5.65;3.40;;;;;;;;;;692723;28;1166;-63
2023/10/16 00:21:44;;;;;;;5.75;3.50;;;;;;;;;;692622;28;903;-63
2023/10/16 00:22:16;;;;;;;6.88;3.47;;;;;;;;;;687120;28;89748;-63
2023/10/16 00:22:36;;;;;;;5.25;3.38;;;;;;;;;;689891;28;69426;-62
2023/10/16 00:22:56;;;;;;;6.10;3.60;;;;;;;;;;691248;28;2192;-62
2023/10/16 00:23:17;;;;;;;6.68;3.50;;;;;;;;;;694477;28;1151;-63
2023/10/16 00:23:38;;;;;;;6.25;3.50;;;;;;;;;;693897;28;865;-63
2023/10/16 00:23:58;;;;;;;6.30;3.33;;;;;;;;;;688215;28;2559;-63
2023/10/16 00:24:18;;;;;;;6.17;3.47;;;;;;;;;;690742;28;955;-62
2023/10/16 00:24:45;;;;;;;5.87;3.40;;;;;;;;;;688114;28;1948;-62
2023/10/16 00:25:06;;;;;;;5.85;3.40;;;;;;;;;;685777;28;89803;-62
2023/10/16 00:25:29;;;;;;;5.63;3.33;;;;;;;;;;691679;28;927;-62
2023/10/16 00:25:50;;;;;;;5.25;3.25;;;;;;;;;;691440;28;1875;-63
2023/10/16 00:26:13;;;;;;;5.50;3.13;;;;;;;;;;693029;28;865;-63
2023/10/16 00:26:36;;;;;;;5.82;3.55;;;;;;;;;;693215;28;47483;-63
2023/10/16 00:27:00;;;;;;;6.13;3.63;;;;;;;;;;692931;28;1425;-62
2023/10/16 00:27:21;;;;;;;5.88;3.75;;;;;;;;;;690687;28;1097;-62
2023/10/16 00:27:41;;;;;;;5.95;3.80;;;;;;;;;;691325;28;912;-63
2023/10/16 00:28:05;;;;;;;6.68;4.05;;;;;;;;;;688075;28;4447;-64
2023/10/16 00:28:26;;;;;;;7.25;4.15;;;;;;;;;;689071;28;1432;-63
2023/10/16 00:28:51;;;;;;;7.03;4.00;;;;;;;;;;689784;28;2299;-64
2023/10/16 00:29:19;;;;;;;7.40;4.57;;;;;;;;;;684407;28;45452;-63
2023/10/16 00:29:43;;;;;;;6.95;3.67;;;;;;;;;;685238;28;22790;-63
2023/10/16 00:30:07;;;;;;;5.97;3.60;;;;;;;;;;684731;28;23214;-63
2023/10/16 00:30:31;;;;;;;5.97;3.53;;;;;;;;;;680921;28;24489;-63
2023/10/16 00:30:51;;;;;;;6.35;3.75;;;;;;;;;;680671;28;4709;-64
2023/10/16 00:31:20;;;;;;;6.05;3.58;;;;;;;;;;687379;28;837;-63
2023/10/16 00:31:42;;;;;;;5.25;3.50;;;;;;;;;;684765;28;69497;-64
2023/10/16 00:32:07;;;;;;;5.85;3.38;;;;;;;;;;683790;28;2251;-63
2023/10/16 00:32:30;;;;;;;5.75;3.22;;;;;;;;;;683398;28;48272;-63
2023/10/16 00:32:51;;;;;;;5.40;3.40;;;;;;;;;;686359;28;24314;-63
2023/10/16 00:33:13;;;;;;;5.45;3.42;;;;;;;;;;686837;28;1287;-63
2023/10/16 00:33:33;;;;;;;5.45;3.50;;;;;;;;;;686216;28;1296;-63
2023/10/16 00:33:53;;;;;;;6.07;3.60;;;;;;;;;;686069;28;4381;-63
2023/10/16 00:34:19;;;;;;;6.13;3.30;;;;;;;;;;688235;28;1735;-62
2023/10/16 00:34:40;;;;;;;5.72;3.45;;;;;;;;;;687416;28;46938;-62
2023/10/16 00:35:00;;;;;;;5.00;3.15;;;;;;;;;;686576;28;2319;-64
2023/10/16 00:35:22;;;;;;;5.60;3.20;;;;;;;;;;686264;28;1483;-64
2023/10/16 00:35:45;;;;;;;6.15;3.20;;;;;;;;;;684011;28;853;-63
2023/10/16 00:36:06;;;;;;;5.40;3.13;;;;;;;;;;680267;28;23723;-63
2023/10/16 00:36:27;;;;;;;5.60;3.10;;;;;;;;;;683942;28;1360;-64
2023/10/16 00:36:49;;;;;;;5.60;3.00;;;;;;;;;;682189;28;4445;-63
2023/10/16 00:37:10;;;;;;;5.50;3.20;;;;;;;;;;687064;28;853;-63
2023/10/16 00:37:33;;;;;;;5.72;3.20;;;;;;;;;;687626;28;852;-62
2023/10/16 00:37:56;;;;;;;6.28;3.70;;;;;;;;;;686271;28;2311;-63
2023/10/16 00:38:19;;;;;;;6.85;3.95;;;;;;;;;;690365;28;1434;-62
2023/10/16 00:38:39;;;;;;;7.45;4.60;;;;;;;;;;693837;28;1105;-63
2023/10/16 00:39:12;;;;;;;7.63;4.80;;;;;;;;;;691853;28;5662;-63
2023/10/16 00:39:33;;;;;;;6.60;4.25;;;;;;;;;;693311;28;1365;-62
2023/10/16 00:39:53;;;;;;;7.93;5.10;;;;;;;;;;688017;28;4445;-63
2023/10/16 00:40:26;;;;;;;6.60;4.97;;;;;;;;;;690063;28;1270;-63
2023/10/16 00:41:28;;;;;;;7.82;4.55;;;;;;;;;;688537;28;69836;-62
2023/10/16 00:41:31;;;;;;;6.40;4.50;;;;;;;;;;686474;28;67767;-63
2023/10/16 00:41:50;;;;;;;7.67;4.50;;;;;;;;;;690410;28;2335;-63
2023/10/16 00:42:10;;;;;;;6.70;4.22;;;;;;;;;;691514;28;3866;-62
2023/10/16 00:42:32;;;;;;;6.70;4.30;;;;;;;;;;690840;28;860;-62
2023/10/16 00:42:53;;;;;;;7.20;4.32;;;;;;;;;;686775;28;5393;-63
2023/10/16 00:43:17;;;;;;;7.27;4.40;;;;;;;;;;686898;28;1307;-63
2023/10/16 00:43:40;;;;;;;6.80;4.35;;;;;;;;;;686398;28;900;-62
2023/10/16 00:44:02;;;;;;;6.47;4.05;;;;;;;;;;685435;28;1225;-62
2023/10/16 00:44:33;;;;;;;7.45;4.07;;;;;;;;;;687934;28;884;-63
2023/10/16 00:44:56;;;;;;;6.70;3.95;;;;;;;;;;681705;28;45251;-63
2023/10/16 00:45:19;;;;;;;6.45;3.90;;;;;;;;;;685581;28;964;-62
2023/10/16 00:45:45;;;;;;;7.18;3.90;;;;;;;;;;687649;28;896;-62
2023/10/16 00:46:06;;;;;;;6.57;3.70;;;;;;;;;;681709;28;67258;-63
2023/10/16 00:46:32;;;;;;;5.88;3.67;;;;;;;;;;685227;28;1375;-62
2023/10/16 00:46:53;;;;;;;6.07;4.15;;;;;;;;;;680184;28;68799;-63
2023/10/16 00:47:15;;;;;;;5.72;3.78;;;;;;;;;;687483;28;967;-63
2023/10/16 00:47:39;;;;;;;5.85;3.53;;;;;;;;;;685167;28;881;-63
2023/10/16 00:48:01;;;;;;;5.70;3.30;;;;;;;;;;685091;28;2267;-63
2023/10/16 00:48:21;;;;;;;7.20;3.53;;;;;;;;;;686206;28;1232;-63
2023/10/16 00:48:42;;;;;;;7.72;3.60;;;;;;;;;;687443;28;4510;-63
2023/10/16 00:49:04;;;;;;;6.40;4.10;;;;;;;;;;690092;28;2628;-64
2023/10/16 00:49:25;;;;;;;6.93;4.20;;;;;;;;;;690886;28;932;-64
2023/10/16 00:49:48;;;;;;;7.00;3.90;;;;;;;;;;690998;28;1784;-64
2023/10/16 00:50:08;;;;;;;6.05;3.80;;;;;;;;;;693083;28;979;-63
2023/10/16 00:50:28;;;;;;;5.80;3.53;;;;;;;;;;693086;28;984;-64
2023/10/16 00:50:48;;;;;;;6.07;3.50;;;;;;;;;;689796;28;2380;-64
2023/10/16 00:51:09;;;;;;;6.33;3.40;;;;;;;;;;687412;28;904;-63
2023/10/16 00:51:30;;;;;;;5.07;3.40;;;;;;;;;;685495;28;1334;-64
2023/10/16 00:51:52;;;;;;;5.78;3.40;;;;;;;;;;684955;28;4414;-64
2023/10/16 00:52:14;;;;;;;5.50;3.40;;;;;;;;;;686056;28;981;-63
2023/10/16 00:52:35;;;;;;;5.53;3.30;;;;;;;;;;685643;28;2201;-63
2023/10/16 00:52:55;;;;;;;5.47;3.20;;;;;;;;;;688641;28;1381;-64
2023/10/16 00:53:20;;;;;;;5.18;3.20;;;;;;;;;;689078;28;993;-64
2023/10/16 00:53:40;;;;;;;5.47;3.10;;;;;;;;;;682461;28;48590;-64
2023/10/16 00:54:02;;;;;;;5.80;3.30;;;;;;;;;;685166;28;1191;-63
2023/10/16 00:54:29;;;;;;;5.47;3.47;;;;;;;;;;689549;28;1015;-63
2023/10/16 00:54:53;;;;;;;5.75;3.20;;;;;;;;;;684058;28;48125;-64
2023/10/16 00:55:14;;;;;;;6.32;3.40;;;;;;;;;;689216;28;23819;-64
2023/10/16 00:55:34;;;;;;;5.80;3.20;;;;;;;;;;693956;28;935;-63
2023/10/16 00:55:55;;;;;;;5.97;3.40;;;;;;;;;;691382;28;1001;-64
2023/10/16 00:56:18;;;;;;;6.27;3.43;;;;;;;;;;693579;28;907;-64
2023/10/16 00:56:39;;;;;;;5.30;3.00;;;;;;;;;;689610;28;1322;-63
2023/10/16 00:57:00;;;;;;;5.07;2.93;;;;;;;;;;689552;28;1046;-64
2023/10/16 00:57:27;;;;;;;5.32;3.03;;;;;;;;;;689800;28;888;-63
2023/10/16 00:57:48;;;;;;;5.70;3.13;;;;;;;;;;684192;28;48286;-63
2023/10/16 00:58:08;;;;;;;5.97;3.50;;;;;;;;;;687743;28;1910;-64
2023/10/16 00:58:29;;;;;;;6.57;3.57;;;;;;;;;;686441;28;849;-61
2023/10/16 00:58:49;;;;;;;5.35;3.38;;;;;;;;;;686279;28;1550;-64
2023/10/16 00:59:15;;;;;;;5.23;3.40;;;;;;;;;;688449;28;917;-64
2023/10/16 00:59:36;;;;;;;5.65;3.50;;;;;;;;;;686609;28;69949;-64
2023/10/16 00:59:58;;;;;;;6.00;3.70;;;;;;;;;;686324;28;1286;-63
2023/10/16 01:00:19;;;;;;;5.03;3.45;;;;;;;;;;686565;28;1299;-64
2023/10/16 01:00:45;;;;;;;4.85;3.25;;;;;;;;;;685912;28;911;-63
2023/10/16 01:01:09;;;;;;;4.93;3.03;;;;;;;;;;681700;28;89624;-64
2023/10/16 01:01:31;;;;;;;5.63;3.00;;;;;;;;;;684731;28;22697;-64
2023/10/16 01:02:04;;;;;;;5.10;3.40;;;;;;;;;;683993;28;1290;-64
2023/10/16 01:02:31;;;;;;;5.63;3.20;;;;;;;;;;685307;28;95025;-64
2023/10/16 01:02:52;;;;;;;6.43;3.40;;;;;;;;;;686076;28;1447;-64
2023/10/16 01:03:13;;;;;;;6.33;3.30;;;;;;;;;;687841;28;821;-63
2023/10/16 01:03:34;;;;;;;5.53;3.30;;;;;;;;;;687541;28;1513;-64
2023/10/16 01:03:57;;;;;;;5.80;3.28;;;;;;;;;;685756;28;4581;-64
2023/10/16 01:04:19;;;;;;;5.80;3.00;;;;;;;;;;688656;28;1504;-64
2023/10/16 01:04:42;;;;;;;5.05;3.42;;;;;;;;;;692198;28;1275;-63
2023/10/16 01:05:04;;;;;;;6.70;4.32;;;;;;;;;;684571;28;1519;-64
2023/10/16 01:05:24;;;;;;;6.93;3.97;;;;;;;;;;687019;28;1275;-64
2023/10/16 01:05:49;;;;;;;6.10;4.00;;;;;;;;;;683328;28;1283;-64
2023/10/16 01:06:17;;;;;;;6.60;4.32;;;;;;;;;;681092;28;47141;-64
2023/10/16 01:06:37;;;;;;;8.40;4.97;;;;;;;;;;680237;28;72382;-64
2023/10/16 01:06:57;;;;;;;8.50;5.40;;;;;;;;;;681503;28;4471;-64
2023/10/16 01:07:19;;;;;;;8.48;5.22;;;;;;;;;;684413;28;950;-64
2023/10/16 01:07:40;;;;;;;7.45;4.85;;;;;;;;;;684438;28;1077;-64
2023/10/16 01:08:00;;;;;;;7.40;4.85;;;;;;;;;;683883;28;1075;-64
2023/10/16 01:08:21;;;;;;;7.28;4.78;;;;;;;;;;683315;28;987;-64
2023/10/16 01:08:49;;;;;;;7.87;4.60;;;;;;;;;;682559;28;872;-64
2023/10/16 01:09:12;;;;;;;6.45;4.35;;;;;;;;;;682198;28;22035;-64
2023/10/16 01:09:35;;;;;;;7.57;4.30;;;;;;;;;;681423;29;1819;-63
2023/10/16 01:09:55;;;;;;;6.43;4.00;;;;;;;;;;681593;28;4639;-64
2023/10/16 01:10:16;;;;;;;6.37;3.90;;;;;;;;;;684929;28;837;-64
2023/10/16 01:10:40;;;;;;;6.00;3.80;;;;;;;;;;688317;28;1325;-64
2023/10/16 01:11:00;;;;;;;6.32;3.78;;;;;;;;;;688084;28;1157;-64
2023/10/16 01:11:22;;;;;;;6.10;3.40;;;;;;;;;;690125;28;911;-64
2023/10/16 01:11:43;;;;;;;6.60;3.78;;;;;;;;;;690742;28;1491;-63
2023/10/16 01:12:07;;;;;;;5.32;3.47;;;;;;;;;;689239;28;1284;-63
2023/10/16 01:12:27;;;;;;;5.40;3.20;;;;;;;;;;687891;28;23231;-63
2023/10/16 01:12:54;;;;;;;5.77;3.27;;;;;;;;;;686351;28;4783;-64
2023/10/16 01:13:16;;;;;;;5.72;3.15;;;;;;;;;;683228;28;45489;-64
2023/10/16 01:13:38;;;;;;;5.50;3.10;;;;;;;;;;687799;28;2208;-64
2023/10/16 01:13:58;;;;;;;6.05;3.10;;;;;;;;;;686409;28;2855;-64
2023/10/16 01:14:19;;;;;;;5.53;3.13;;;;;;;;;;682952;28;1241;-64
2023/10/16 01:14:40;;;;;;;5.20;3.20;;;;;;;;;;686159;28;1751;-65
2023/10/16 01:15:00;;;;;;;5.40;3.30;;;;;;;;;;682818;28;1848;-64
2023/10/16 01:15:21;;;;;;;4.93;3.17;;;;;;;;;;685362;28;883;-63
2023/10/16 01:15:53;;;;;;;5.07;3.10;;;;;;;;;;686126;28;4570;-64
2023/10/16 01:16:16;;;;;;;5.30;3.08;;;;;;;;;;681766;28;69542;-63
2023/10/16 01:16:36;;;;;;;4.97;3.00;;;;;;;;;;683793;28;1164;-63
2023/10/16 01:16:57;;;;;;;4.53;2.93;;;;;;;;;;686794;28;2936;-64
2023/10/16 01:17:29;;;;;;;5.13;3.03;;;;;;;;;;684924;28;1237;-64
2023/10/16 01:17:50;;;;;;;5.25;3.10;;;;;;;;;;686075;28;1799;-63
2023/10/16 01:18:15;;;;;;;4.50;3.00;;;;;;;;;;683672;28;1903;-64
2023/10/16 01:18:35;;;;;;;5.45;2.97;;;;;;;;;;681460;28;22684;-64
2023/10/16 01:19:06;;;;;;;5.32;3.03;;;;;;;;;;682393;28;4540;-64
2023/10/16 01:19:28;;;;;;;5.15;3.15;;;;;;;;;;683166;28;69830;-63
2023/10/16 01:19:50;;;;;;;5.57;3.30;;;;;;;;;;682998;28;1818;-63
2023/10/16 01:20:12;;;;;;;5.03;3.13;;;;;;;;;;689991;28;920;-64
2023/10/16 01:20:32;;;;;;;5.55;3.00;;;;;;;;;;693849;28;1034;-64
2023/10/16 01:20:53;;;;;;;5.25;2.90;;;;;;;;;;690439;28;2317;-63
2023/10/16 01:21:17;;;;;;;5.30;2.92;;;;;;;;;;693064;28;1213;-63
2023/10/16 01:21:37;;;;;;;5.75;3.35;;;;;;;;;;691409;28;959;-63
2023/10/16 01:21:59;;;;;;;5.87;3.40;;;;;;;;;;690634;28;4509;-63
2023/10/16 01:22:22;;;;;;;5.40;3.10;;;;;;;;;;692732;28;1279;-64
2023/10/16 01:22:43;;;;;;;5.38;3.00;;;;;;;;;;691728;28;22872;-64
2023/10/16 01:23:07;;;;;;;4.53;2.78;;;;;;;;;;690952;28;2294;-64
2023/10/16 01:23:27;;;;;;;4.65;2.75;;;;;;;;;;692386;28;951;-63
2023/10/16 01:23:47;;;;;;;4.30;2.70;;;;;;;;;;691773;28;1518;-63
2023/10/16 01:24:16;;;;;;;4.60;2.90;;;;;;;;;;687058;28;1239;-64
2023/10/16 01:24:43;;;;;;;4.90;3.05;;;;;;;;;;682317;28;69623;-63
2023/10/16 01:25:08;;;;;;;4.60;2.88;;;;;;;;;;679498;28;66375;-64
2023/10/16 01:25:28;;;;;;;6.20;2.97;;;;;;;;;;680846;29;25300;-63
2023/10/16 01:25:49;;;;;;;4.37;2.80;;;;;;;;;;680080;28;1609;-64
2023/10/16 01:26:10;;;;;;;4.90;2.95;;;;;;;;;;685356;28;1237;-62
2023/10/16 01:26:31;;;;;;;4.82;2.75;;;;;;;;;;687168;28;801;-63
2023/10/16 01:26:52;;;;;;;4.70;2.90;;;;;;;;;;687492;28;1058;-63
2023/10/16 01:27:26;;;;;;;4.40;2.80;;;;;;;;;;690950;28;875;-63
2023/10/16 01:27:46;;;;;;;5.20;3.17;;;;;;;;;;689771;28;92479;-64
2023/10/16 01:28:06;;;;;;;4.80;2.80;;;;;;;;;;690807;28;1238;-63
2023/10/16 01:28:27;;;;;;;4.50;2.80;;;;;;;;;;692632;28;845;-63
2023/10/16 01:28:47;;;;;;;4.35;2.90;;;;;;;;;;692640;28;2806;-64
2023/10/16 01:29:09;;;;;;;4.30;2.67;;;;;;;;;;692964;28;849;-63
2023/10/16 01:29:31;;;;;;;4.65;2.70;;;;;;;;;;692587;28;1384;-64
2023/10/16 01:29:52;;;;;;;4.80;2.60;;;;;;;;;;691351;28;1088;-64
2023/10/16 01:30:13;;;;;;;5.20;2.88;;;;;;;;;;691396;28;973;-63
2023/10/16 01:30:40;;;;;;;7.60;2.80;;;;;;;;;;684791;28;22277;-63
2023/10/16 01:31:01;;;;;;;4.40;2.55;;;;;;;;;;682462;28;24096;-63
2023/10/16 01:31:21;;;;;;;5.13;3.03;;;;;;;;;;683456;28;1536;-63
2023/10/16 01:31:44;;;;;;;5.05;3.00;;;;;;;;;;683320;28;924;-62
2023/10/16 01:32:05;;;;;;;4.80;2.80;;;;;;;;;;683891;28;1798;-63
2023/10/16 01:32:26;;;;;;;4.53;3.00;;;;;;;;;;688305;28;921;-63
2023/10/16 01:32:46;;;;;;;4.77;3.07;;;;;;;;;;686303;28;1243;-63
2023/10/16 01:33:07;;;;;;;4.25;2.80;;;;;;;;;;686895;28;1962;-63
2023/10/16 01:33:30;;;;;;;4.10;2.70;;;;;;;;;;689190;28;1438;-63
2023/10/16 01:33:51;;;;;;;5.10;2.97;;;;;;;;;;689693;28;4545;-63
2023/10/16 01:34:11;;;;;;;4.85;2.90;;;;;;;;;;690908;28;903;-63
2023/10/16 01:34:32;;;;;;;4.67;2.90;;;;;;;;;;689096;28;1000;-63
2023/10/16 01:34:52;;;;;;;5.25;3.03;;;;;;;;;;689776;28;1732;-64
2023/10/16 01:35:13;;;;;;;5.67;3.07;;;;;;;;;;690728;28;859;-63
2023/10/16 01:35:37;;;;;;;5.43;3.10;;;;;;;;;;690339;28;922;-62
2023/10/16 01:35:57;;;;;;;4.95;2.83;;;;;;;;;;689534;28;1752;-64
2023/10/16 01:36:19;;;;;;;4.82;2.90;;;;;;;;;;689047;28;1297;-63
2023/10/16 01:36:45;;;;;;;5.33;3.00;;;;;;;;;;692099;28;891;-64
2023/10/16 01:37:08;;;;;;;4.68;2.65;;;;;;;;;;685309;28;89681;-63
2023/10/16 01:37:31;;;;;;;5.47;2.78;;;;;;;;;;689692;28;988;-63
2023/10/16 01:37:53;;;;;;;5.32;2.60;;;;;;;;;;689454;28;1523;-63
2023/10/16 01:38:16;;;;;;;4.53;2.80;;;;;;;;;;689938;28;1914;-63
2023/10/16 01:38:37;;;;;;;5.45;2.90;;;;;;;;;;690271;28;23335;-64
2023/10/16 01:39:06;;;;;;;4.32;2.83;;;;;;;;;;691072;28;5707;-63
2023/10/16 01:40:25;;;;;;;4.50;2.80;;;;;;;;;;685792;28;89473;-63
2023/10/16 01:41:29;;;;;;;5.10;2.90;;;;;;;;;;687519;28;70297;-62
2023/10/16 01:41:29;;;;;;;4.93;2.92;;;;;;;;;;684757;28;48134;-62
2023/10/16 01:41:52;;;;;;;4.20;2.80;;;;;;;;;;690673;28;2475;-63
2023/10/16 01:42:12;;;;;;;4.72;3.40;;;;;;;;;;692802;28;3585;-63
2023/10/16 01:42:32;;;;;;;4.30;2.70;;;;;;;;;;691295;28;898;-63
2023/10/16 01:42:53;;;;;;;4.50;2.60;;;;;;;;;;684860;28;4411;-63
2023/10/16 01:43:14;;;;;;;4.78;2.78;;;;;;;;;;686753;28;1472;-63
2023/10/16 01:43:35;;;;;;;4.83;2.80;;;;;;;;;;686996;28;864;-64
2023/10/16 01:43:58;;;;;;;4.90;2.92;;;;;;;;;;685917;28;1750;-64
2023/10/16 01:44:18;;;;;;;4.78;2.83;;;;;;;;;;688242;28;821;-63
2023/10/16 01:44:43;;;;;;;4.90;2.90;;;;;;;;;;687518;28;1295;-63
2023/10/16 01:45:04;;;;;;;4.90;3.20;;;;;;;;;;688530;28;46966;-63
2023/10/16 01:45:27;;;;;;;4.95;2.85;;;;;;;;;;688573;28;1462;-63
2023/10/16 01:45:50;;;;;;;4.50;2.95;;;;;;;;;;689999;28;4465;-64
2023/10/16 01:46:12;;;;;;;5.43;2.75;;;;;;;;;;690623;28;996;-63
2023/10/16 01:46:33;;;;;;;5.35;2.90;;;;;;;;;;691886;28;949;-64
2023/10/16 01:46:53;;;;;;;4.70;3.00;;;;;;;;;;690046;28;2385;-63
2023/10/16 01:47:16;;;;;;;4.10;2.57;;;;;;;;;;689184;28;926;-64
2023/10/16 01:47:37;;;;;;;4.78;2.95;;;;;;;;;;690241;28;935;-63
2023/10/16 01:47:57;;;;;;;4.77;2.90;;;;;;;;;;686172;28;2377;-62
2023/10/16 01:48:21;;;;;;;4.40;2.90;;;;;;;;;;684833;28;1205;-63
2023/10/16 01:48:44;;;;;;;4.35;2.75;;;;;;;;;;685864;28;1202;-63
2023/10/16 01:49:05;;;;;;;4.68;2.85;;;;;;;;;;684036;28;21121;-63
2023/10/16 01:49:26;;;;;;;5.05;3.00;;;;;;;;;;686301;28;1368;-62
2023/10/16 01:49:48;;;;;;;4.60;2.80;;;;;;;;;;689862;28;1386;-64
2023/10/16 01:50:20;;;;;;;4.50;2.80;;;;;;;;;;689715;28;849;-63
2023/10/16 01:50:41;;;;;;;5.88;3.20;;;;;;;;;;690203;28;861;-62
2023/10/16 01:51:01;;;;;;;4.93;2.87;;;;;;;;;;688016;28;1925;-63
2023/10/16 01:51:22;;;;;;;5.00;2.80;;;;;;;;;;685011;28;908;-62
2023/10/16 01:51:44;;;;;;;4.65;2.95;;;;;;;;;;686753;28;4646;-63
2023/10/16 01:52:06;;;;;;;4.75;2.85;;;;;;;;;;686535;28;2287;-63
2023/10/16 01:52:33;;;;;;;4.72;2.78;;;;;;;;;;685601;28;23001;-62
2023/10/16 01:52:54;;;;;;;4.57;2.70;;;;;;;;;;684127;28;2283;-63
2023/10/16 01:53:20;;;;;;;4.72;2.90;;;;;;;;;;687427;28;1052;-63
2023/10/16 01:53:40;;;;;;;4.57;2.90;;;;;;;;;;686161;28;45687;-63
2023/10/16 01:54:01;;;;;;;4.63;2.73;;;;;;;;;;683686;28;1730;-62
2023/10/16 01:54:24;;;;;;;4.60;2.80;;;;;;;;;;683955;28;1149;-64
2023/10/16 01:54:45;;;;;;;4.40;2.90;;;;;;;;;;685094;28;4764;-63
2023/10/16 01:55:09;;;;;;;4.95;2.80;;;;;;;;;;684853;28;1984;-63
2023/10/16 01:55:30;;;;;;;4.95;2.80;;;;;;;;;;685204;28;1645;-64
2023/10/16 01:55:51;;;;;;;5.05;2.80;;;;;;;;;;682870;28;2516;-63
2023/10/16 01:56:14;;;;;;;4.85;2.85;;;;;;;;;;683937;28;1319;-64
2023/10/16 01:56:35;;;;;;;5.28;3.20;;;;;;;;;;684908;28;1299;-64
2023/10/16 01:56:56;;;;;;;5.60;3.20;;;;;;;;;;685357;28;2329;-64
2023/10/16 01:57:16;;;;;;;4.87;3.00;;;;;;;;;;682403;28;1594;-63
2023/10/16 01:57:38;;;;;;;5.03;3.00;;;;;;;;;;683844;28;1312;-63
2023/10/16 01:57:59;;;;;;;4.70;3.00;;;;;;;;;;683210;28;4415;-64
2023/10/16 01:58:31;;;;;;;4.97;2.90;;;;;;;;;;685401;28;1977;-63
2023/10/16 01:58:52;;;;;;;4.82;2.92;;;;;;;;;;680770;28;2445;-64
2023/10/16 01:59:12;;;;;;;5.07;2.95;;;;;;;;;;679560;28;1315;-63
2023/10/16 01:59:32;;;;;;;4.80;2.90;;;;;;;;;;685979;28;1337;-63
2023/10/16 01:59:53;;;;;;;4.50;2.80;;;;;;;;;;684592;28;2525;-63
2023/10/16 02:00:18;;;;;;;5.40;2.97;;;;;;;;;;683326;28;1358;-63
2023/10/16 02:00:41;;;;;;;4.50;3.00;;;;;;;;;;680901;28;1435;-64
2023/10/16 02:01:01;;;;;;;4.95;2.67;;;;;;;;;;682734;28;4449;-63
2023/10/16 02:01:22;;;;;;;5.60;3.40;;;;;;;;;;687529;28;951;-63
2023/10/16 02:01:43;;;;;;;4.82;2.83;;;;;;;;;;686579;28;1597;-64
2023/10/16 02:02:03;;;;;;;5.28;2.70;;;;;;;;;;683974;28;2241;-64
2023/10/16 02:02:23;;;;;;;6.30;2.97;;;;;;;;;;686871;28;885;-64
2023/10/16 02:02:45;;;;;;;5.33;2.80;;;;;;;;;;688669;28;849;-63
2023/10/16 02:03:08;;;;;;;4.60;2.92;;;;;;;;;;685576;28;1830;-64
2023/10/16 02:03:28;;;;;;;4.90;2.85;;;;;;;;;;686838;28;1232;-63
2023/10/16 02:03:49;;;;;;;4.78;2.70;;;;;;;;;;690136;28;4574;-64
2023/10/16 02:04:09;;;;;;;4.55;2.90;;;;;;;;;;690618;28;1222;-63
2023/10/16 02:04:30;;;;;;;4.83;2.90;;;;;;;;;;689948;28;809;-63
2023/10/16 02:04:50;;;;;;;4.90;3.10;;;;;;;;;;690672;28;2578;-63
2023/10/16 02:05:14;;;;;;;4.55;2.83;;;;;;;;;;691549;28;1405;-62
2023/10/16 02:05:34;;;;;;;5.05;2.90;;;;;;;;;;690933;28;26842;-63
2023/10/16 02:05:55;;;;;;;4.70;2.90;;;;;;;;;;689023;28;2468;-64
2023/10/16 02:06:16;;;;;;;5.13;2.80;;;;;;;;;;688441;28;887;-63
2023/10/16 02:06:38;;;;;;;4.63;2.63;;;;;;;;;;689020;28;1571;-63
2023/10/16 02:07:00;;;;;;;4.78;2.70;;;;;;;;;;684204;28;4617;-63
2023/10/16 02:07:23;;;;;;;5.00;2.75;;;;;;;;;;686838;28;928;-62
2023/10/16 02:07:45;;;;;;;5.18;2.80;;;;;;;;;;685396;28;1565;-61
2023/10/16 02:08:07;;;;;;;4.97;2.88;;;;;;;;;;679863;28;2302;-63
2023/10/16 02:08:28;;;;;;;5.60;2.83;;;;;;;;;;684416;28;1487;-63
2023/10/16 02:08:48;;;;;;;4.70;2.83;;;;;;;;;;686301;28;4460;-62
2023/10/16 02:09:13;;;;;;;4.90;3.00;;;;;;;;;;685017;28;2310;-62
2023/10/16 02:09:36;;;;;;;5.40;2.88;;;;;;;;;;687703;28;884;-64
2023/10/16 02:09:58;;;;;;;4.90;2.90;;;;;;;;;;690004;28;4864;-63
2023/10/16 02:10:20;;;;;;;4.83;2.80;;;;;;;;;;690633;28;1562;-63
2023/10/16 02:10:40;;;;;;;4.72;2.90;;;;;;;;;;691075;28;872;-62
2023/10/16 02:11:02;;;;;;;4.47;2.95;;;;;;;;;;688160;28;1782;-62
2023/10/16 02:11:23;;;;;;;4.63;2.85;;;;;;;;;;688851;28;2203;-63
2023/10/16 02:11:43;;;;;;;4.80;2.90;;;;;;;;;;689293;28;825;-62
2023/10/16 02:12:10;;;;;;;4.70;2.80;;;;;;;;;;688736;28;2246;-63
2023/10/16 02:12:30;;;;;;;5.10;2.80;;;;;;;;;;689231;28;1016;-63
2023/10/16 02:12:51;;;;;;;5.10;2.93;;;;;;;;;;683516;28;4400;-63
2023/10/16 02:13:12;;;;;;;4.63;2.70;;;;;;;;;;687005;28;908;-65
2023/10/16 02:13:35;;;;;;;4.93;3.00;;;;;;;;;;688902;28;1548;-63
2023/10/16 02:13:55;;;;;;;5.30;2.90;;;;;;;;;;683296;28;1257;-63
2023/10/16 02:14:16;;;;;;;4.55;2.80;;;;;;;;;;683218;28;1417;-62
2023/10/16 02:14:39;;;;;;;4.80;2.90;;;;;;;;;;685867;28;1315;-62
2023/10/16 02:15:05;;;;;;;4.90;3.00;;;;;;;;;;683771;28;2909;-63
2023/10/16 02:15:25;;;;;;;4.18;2.63;;;;;;;;;;684654;28;1087;-63
2023/10/16 02:15:47;;;;;;;4.70;2.70;;;;;;;;;;684685;28;4416;-63
2023/10/16 02:16:12;;;;;;;4.80;2.90;;;;;;;;;;686916;28;2265;-63
2023/10/16 02:16:37;;;;;;;4.40;2.67;;;;;;;;;;687764;28;1002;-63
2023/10/16 02:16:58;;;;;;;5.45;2.95;;;;;;;;;;688492;28;2364;-61
2023/10/16 02:17:22;;;;;;;5.50;3.17;;;;;;;;;;687332;28;813;-65
2023/10/16 02:17:43;;;;;;;4.75;2.83;;;;;;;;;;687493;28;951;-65
2023/10/16 02:18:06;;;;;;;5.30;3.10;;;;;;;;;;684796;28;1983;-64
2023/10/16 02:18:27;;;;;;;5.10;3.00;;;;;;;;;;687165;28;878;-63
2023/10/16 02:18:47;;;;;;;4.07;2.65;;;;;;;;;;687895;28;4657;-63
2023/10/16 02:19:08;;;;;;;4.70;2.93;;;;;;;;;;686750;28;1769;-63
2023/10/16 02:19:28;;;;;;;4.67;2.70;;;;;;;;;;688671;28;856;-63
2023/10/16 02:19:50;;;;;;;3.90;2.63;;;;;;;;;;687442;28;971;-63
2023/10/16 02:20:13;;;;;;;4.78;2.97;;;;;;;;;;689146;28;1754;-63